sensor_id;sensor_type;location;lat;lon;timestamp;P1;durP1;ratioP1;P2;durP2;ratioP2
6185;SDS011;3126;52.738;8.316;2023-06-10T00:02:58;6.97;;;4.60;;
6185;SDS011;3126;52.738;8.316;2023-06-10T00:07:59;6.93;;;4.55;;
6185;SDS011;3126;52.738;8.316;2023-06-10T00:12:59;7.15;;;4.65;;
6185;SDS011;3126;52.738;8.316;2023-06-10T00:18:01;6.85;;;4.60;;
6185;SDS011;3126;52.738;8.316;2023-06-10T00:23:02;7.22;;;4.72;;
6185;SDS011;3126;52.738;8.316;2023-06-10T00:28:02;9.90;;;4.90;;
6185;SDS011;3126;52.738;8.316;2023-06-10T00:33:03;6.25;;;4.93;;
6185;SDS011;3126;52.738;8.316;2023-06-10T00:38:03;7.47;;;4.38;;
6185;SDS011;3126;52.738;8.316;2023-06-10T00:43:04;6.22;;;4.28;;
6185;SDS011;3126;52.738;8.316;2023-06-10T00:48:05;8.68;;;4.90;;
6185;SDS011;3126;52.738;8.316;2023-06-10T00:53:05;7.57;;;4.47;;
6185;SDS011;3126;52.738;8.316;2023-06-10T00:58:06;10.50;;;4.70;;
6185;SDS011;3126;52.738;8.316;2023-06-10T01:03:07;5.43;;;4.35;;
6185;SDS011;3126;52.738;8.316;2023-06-10T01:13:29;6.45;;;4.30;;
6185;SDS011;3126;52.738;8.316;2023-06-10T01:23:32;11.90;;;4.72;;
6185;SDS011;3126;52.738;8.316;2023-06-10T01:28:36;8.82;;;4.72;;
6185;SDS011;3126;52.738;8.316;2023-06-10T01:33:54;9.55;;;4.95;;
6185;SDS011;3126;52.738;8.316;2023-06-10T01:38:55;6.15;;;4.70;;
6185;SDS011;3126;52.738;8.316;2023-06-10T01:43:57;8.25;;;4.47;;
6185;SDS011;3126;52.738;8.316;2023-06-10T01:48:58;8.13;;;4.68;;
6185;SDS011;3126;52.738;8.316;2023-06-10T01:53:58;7.60;;;4.50;;
6185;SDS011;3126;52.738;8.316;2023-06-10T01:58:59;9.68;;;4.63;;
6185;SDS011;3126;52.738;8.316;2023-06-10T02:04:00;8.48;;;4.57;;
6185;SDS011;3126;52.738;8.316;2023-06-10T02:09:00;8.88;;;5.25;;
6185;SDS011;3126;52.738;8.316;2023-06-10T02:14:01;7.30;;;4.40;;
6185;SDS011;3126;52.738;8.316;2023-06-10T02:19:02;6.50;;;4.38;;
6185;SDS011;3126;52.738;8.316;2023-06-10T02:24:05;8.32;;;4.45;;
6185;SDS011;3126;52.738;8.316;2023-06-10T02:29:06;7.75;;;4.70;;
6185;SDS011;3126;52.738;8.316;2023-06-10T02:34:07;8.20;;;3.97;;
6185;SDS011;3126;52.738;8.316;2023-06-10T02:39:08;7.38;;;4.43;;
6185;SDS011;3126;52.738;8.316;2023-06-10T02:44:09;8.63;;;4.65;;
6185;SDS011;3126;52.738;8.316;2023-06-10T02:49:09;8.25;;;4.03;;
6185;SDS011;3126;52.738;8.316;2023-06-10T02:54:11;8.57;;;4.50;;
6185;SDS011;3126;52.738;8.316;2023-06-10T02:59:11;7.85;;;4.57;;
6185;SDS011;3126;52.738;8.316;2023-06-10T03:04:12;5.63;;;4.45;;
6185;SDS011;3126;52.738;8.316;2023-06-10T03:09:14;8.00;;;4.35;;
6185;SDS011;3126;52.738;8.316;2023-06-10T03:14:15;11.80;;;4.65;;
6185;SDS011;3126;52.738;8.316;2023-06-10T03:19:15;9.82;;;4.43;;
6185;SDS011;3126;52.738;8.316;2023-06-10T03:24:16;10.95;;;4.88;;
6185;SDS011;3126;52.738;8.316;2023-06-10T03:29:16;6.90;;;4.57;;
6185;SDS011;3126;52.738;8.316;2023-06-10T03:34:17;10.57;;;5.32;;
6185;SDS011;3126;52.738;8.316;2023-06-10T03:39:17;8.98;;;5.15;;
6185;SDS011;3126;52.738;8.316;2023-06-10T03:44:18;9.60;;;4.78;;
6185;SDS011;3126;52.738;8.316;2023-06-10T03:49:18;10.35;;;5.03;;
6185;SDS011;3126;52.738;8.316;2023-06-10T03:54:19;9.95;;;4.97;;
6185;SDS011;3126;52.738;8.316;2023-06-10T03:59:19;9.02;;;4.65;;
6185;SDS011;3126;52.738;8.316;2023-06-10T04:04:20;10.10;;;5.20;;
6185;SDS011;3126;52.738;8.316;2023-06-10T04:09:21;10.88;;;5.10;;
6185;SDS011;3126;52.738;8.316;2023-06-10T04:14:22;11.23;;;5.70;;
6185;SDS011;3126;52.738;8.316;2023-06-10T04:19:23;8.30;;;4.78;;
6185;SDS011;3126;52.738;8.316;2023-06-10T04:24:24;11.90;;;5.50;;
6185;SDS011;3126;52.738;8.316;2023-06-10T04:29:25;8.73;;;5.00;;
6185;SDS011;3126;52.738;8.316;2023-06-10T04:34:25;11.57;;;5.32;;
6185;SDS011;3126;52.738;8.316;2023-06-10T04:39:26;8.45;;;4.78;;
6185;SDS011;3126;52.738;8.316;2023-06-10T04:44:27;6.90;;;4.60;;
6185;SDS011;3126;52.738;8.316;2023-06-10T04:49:27;9.20;;;4.88;;
6185;SDS011;3126;52.738;8.316;2023-06-10T04:54:29;8.60;;;5.28;;
6185;SDS011;3126;52.738;8.316;2023-06-10T04:59:30;11.07;;;5.40;;
6185;SDS011;3126;52.738;8.316;2023-06-10T05:04:30;10.27;;;5.40;;
6185;SDS011;3126;52.738;8.316;2023-06-10T05:09:31;7.35;;;5.72;;
6185;SDS011;3126;52.738;8.316;2023-06-10T05:14:32;11.27;;;5.20;;
6185;SDS011;3126;52.738;8.316;2023-06-10T05:19:33;9.52;;;5.68;;
6185;SDS011;3126;52.738;8.316;2023-06-10T05:24:35;7.63;;;5.80;;
6185;SDS011;3126;52.738;8.316;2023-06-10T05:29:37;9.30;;;5.93;;
6185;SDS011;3126;52.738;8.316;2023-06-10T05:34:38;8.77;;;5.90;;
6185;SDS011;3126;52.738;8.316;2023-06-10T05:39:38;14.30;;;6.07;;
6185;SDS011;3126;52.738;8.316;2023-06-10T05:44:39;8.23;;;4.32;;
6185;SDS011;3126;52.738;8.316;2023-06-10T05:49:40;8.43;;;5.80;;
6185;SDS011;3126;52.738;8.316;2023-06-10T05:54:40;9.00;;;5.35;;
6185;SDS011;3126;52.738;8.316;2023-06-10T05:59:41;7.90;;;5.20;;
6185;SDS011;3126;52.738;8.316;2023-06-10T06:04:41;10.13;;;5.47;;
6185;SDS011;3126;52.738;8.316;2023-06-10T06:09:42;7.03;;;4.88;;
6185;SDS011;3126;52.738;8.316;2023-06-10T06:14:42;8.18;;;5.47;;
6185;SDS011;3126;52.738;8.316;2023-06-10T06:19:44;7.55;;;5.63;;
6185;SDS011;3126;52.738;8.316;2023-06-10T06:24:47;8.98;;;5.90;;
6185;SDS011;3126;52.738;8.316;2023-06-10T06:29:49;7.47;;;5.55;;
6185;SDS011;3126;52.738;8.316;2023-06-10T06:34:50;8.38;;;5.68;;
6185;SDS011;3126;52.738;8.316;2023-06-10T06:39:54;10.00;;;6.13;;
6185;SDS011;3126;52.738;8.316;2023-06-10T06:44:54;8.20;;;6.20;;
6185;SDS011;3126;52.738;8.316;2023-06-10T06:49:55;7.80;;;5.78;;
6185;SDS011;3126;52.738;8.316;2023-06-10T06:54:55;10.25;;;6.28;;
6185;SDS011;3126;52.738;8.316;2023-06-10T06:59:56;9.18;;;6.00;;
6185;SDS011;3126;52.738;8.316;2023-06-10T07:04:56;9.10;;;6.47;;
6185;SDS011;3126;52.738;8.316;2023-06-10T07:09:57;11.73;;;6.78;;
6185;SDS011;3126;52.738;8.316;2023-06-10T07:14:57;11.57;;;6.95;;
6185;SDS011;3126;52.738;8.316;2023-06-10T07:19:58;8.40;;;6.15;;
6185;SDS011;3126;52.738;8.316;2023-06-10T07:24:59;7.85;;;6.18;;
6185;SDS011;3126;52.738;8.316;2023-06-10T07:30:00;8.05;;;5.85;;
6185;SDS011;3126;52.738;8.316;2023-06-10T07:35:01;7.72;;;6.93;;
6185;SDS011;3126;52.738;8.316;2023-06-10T07:40:02;9.65;;;6.70;;
6185;SDS011;3126;52.738;8.316;2023-06-10T07:45:03;7.03;;;6.28;;
6185;SDS011;3126;52.738;8.316;2023-06-10T07:50:04;9.02;;;6.60;;
6185;SDS011;3126;52.738;8.316;2023-06-10T07:55:05;10.02;;;6.03;;
6185;SDS011;3126;52.738;8.316;2023-06-10T08:00:06;6.90;;;6.03;;
6185;SDS011;3126;52.738;8.316;2023-06-10T08:05:08;10.32;;;5.90;;
6185;SDS011;3126;52.738;8.316;2023-06-10T08:10:09;7.57;;;5.72;;
6185;SDS011;3126;52.738;8.316;2023-06-10T08:15:09;7.00;;;5.60;;
6185;SDS011;3126;52.738;8.316;2023-06-10T08:20:10;7.25;;;6.32;;
6185;SDS011;3126;52.738;8.316;2023-06-10T08:25:11;8.65;;;5.93;;
6185;SDS011;3126;52.738;8.316;2023-06-10T08:30:11;9.25;;;6.13;;
6185;SDS011;3126;52.738;8.316;2023-06-10T08:35:13;7.47;;;5.50;;
6185;SDS011;3126;52.738;8.316;2023-06-10T08:40:13;7.43;;;5.13;;
6185;SDS011;3126;52.738;8.316;2023-06-10T08:45:17;5.30;;;4.57;;
6185;SDS011;3126;52.738;8.316;2023-06-10T08:50:18;6.00;;;4.93;;
6185;SDS011;3126;52.738;8.316;2023-06-10T08:55:21;7.10;;;4.88;;
6185;SDS011;3126;52.738;8.316;2023-06-10T09:00:28;7.50;;;5.45;;
6185;SDS011;3126;52.738;8.316;2023-06-10T09:05:30;6.00;;;5.20;;
6185;SDS011;3126;52.738;8.316;2023-06-10T09:10:33;6.65;;;5.25;;
6185;SDS011;3126;52.738;8.316;2023-06-10T09:15:34;8.27;;;5.03;;
6185;SDS011;3126;52.738;8.316;2023-06-10T09:20:35;7.25;;;5.20;;
6185;SDS011;3126;52.738;8.316;2023-06-10T09:25:36;9.80;;;5.00;;
6185;SDS011;3126;52.738;8.316;2023-06-10T09:30:38;7.03;;;4.68;;
6185;SDS011;3126;52.738;8.316;2023-06-10T09:35:44;7.10;;;5.25;;
6185;SDS011;3126;52.738;8.316;2023-06-10T09:40:53;7.68;;;4.95;;
6185;SDS011;3126;52.738;8.316;2023-06-10T09:45:55;5.00;;;4.50;;
6185;SDS011;3126;52.738;8.316;2023-06-10T09:50:57;5.65;;;4.70;;
6185;SDS011;3126;52.738;8.316;2023-06-10T09:55:57;4.93;;;4.10;;
6185;SDS011;3126;52.738;8.316;2023-06-10T10:00:58;5.60;;;4.22;;
6185;SDS011;3126;52.738;8.316;2023-06-10T10:05:59;6.68;;;4.40;;
6185;SDS011;3126;52.738;8.316;2023-06-10T10:11:02;5.13;;;4.35;;
6185;SDS011;3126;52.738;8.316;2023-06-10T10:16:09;8.95;;;4.65;;
6185;SDS011;3126;52.738;8.316;2023-06-10T10:21:12;5.63;;;4.57;;
6185;SDS011;3126;52.738;8.316;2023-06-10T10:26:13;5.70;;;4.30;;
6185;SDS011;3126;52.738;8.316;2023-06-10T10:31:15;5.20;;;3.47;;
6185;SDS011;3126;52.738;8.316;2023-06-10T10:36:18;5.55;;;4.07;;
6185;SDS011;3126;52.738;8.316;2023-06-10T10:41:19;11.82;;;4.40;;
6185;SDS011;3126;52.738;8.316;2023-06-10T10:46:20;5.88;;;3.67;;
6185;SDS011;3126;52.738;8.316;2023-06-10T10:51:22;4.65;;;3.65;;
6185;SDS011;3126;52.738;8.316;2023-06-10T10:56:24;5.57;;;3.67;;
6185;SDS011;3126;52.738;8.316;2023-06-10T11:01:40;4.20;;;3.90;;
6185;SDS011;3126;52.738;8.316;2023-06-10T11:06:51;7.28;;;4.07;;
6185;SDS011;3126;52.738;8.316;2023-06-10T11:11:52;4.20;;;3.35;;
6185;SDS011;3126;52.738;8.316;2023-06-10T11:16:57;3.45;;;3.15;;
6185;SDS011;3126;52.738;8.316;2023-06-10T11:21:58;5.03;;;3.50;;
6185;SDS011;3126;52.738;8.316;2023-06-10T11:27:22;4.45;;;3.50;;
6185;SDS011;3126;52.738;8.316;2023-06-10T11:32:25;3.70;;;3.30;;
6185;SDS011;3126;52.738;8.316;2023-06-10T11:37:31;5.00;;;3.35;;
6185;SDS011;3126;52.738;8.316;2023-06-10T11:42:32;6.05;;;3.47;;
6185;SDS011;3126;52.738;8.316;2023-06-10T11:47:33;4.63;;;3.25;;
6185;SDS011;3126;52.738;8.316;2023-06-10T11:52:33;4.70;;;3.35;;
6185;SDS011;3126;52.738;8.316;2023-06-10T11:57:38;4.07;;;3.22;;
6185;SDS011;3126;52.738;8.316;2023-06-10T12:02:38;3.50;;;3.20;;
6185;SDS011;3126;52.738;8.316;2023-06-10T12:07:39;3.55;;;3.08;;
6185;SDS011;3126;52.738;8.316;2023-06-10T12:12:39;3.45;;;2.80;;
6185;SDS011;3126;52.738;8.316;2023-06-10T12:17:42;3.63;;;2.95;;
6185;SDS011;3126;52.738;8.316;2023-06-10T12:22:43;3.75;;;2.92;;
6185;SDS011;3126;52.738;8.316;2023-06-10T12:27:51;3.85;;;3.00;;
6185;SDS011;3126;52.738;8.316;2023-06-10T12:32:53;4.07;;;2.75;;
6185;SDS011;3126;52.738;8.316;2023-06-10T12:38:01;4.43;;;2.90;;
6185;SDS011;3126;52.738;8.316;2023-06-10T12:43:04;5.00;;;3.05;;
6185;SDS011;3126;52.738;8.316;2023-06-10T12:53:09;4.03;;;3.00;;
6185;SDS011;3126;52.738;8.316;2023-06-10T12:58:11;3.50;;;2.95;;
6185;SDS011;3126;52.738;8.316;2023-06-10T13:03:12;4.25;;;2.97;;
6185;SDS011;3126;52.738;8.316;2023-06-10T13:08:12;4.13;;;3.17;;
6185;SDS011;3126;52.738;8.316;2023-06-10T13:13:13;3.90;;;3.30;;
6185;SDS011;3126;52.738;8.316;2023-06-10T13:18:14;4.00;;;3.28;;
6185;SDS011;3126;52.738;8.316;2023-06-10T13:23:14;3.78;;;3.30;;
6185;SDS011;3126;52.738;8.316;2023-06-10T13:28:15;4.70;;;3.00;;
6185;SDS011;3126;52.738;8.316;2023-06-10T13:33:15;4.75;;;3.20;;
6185;SDS011;3126;52.738;8.316;2023-06-10T13:38:16;3.83;;;3.22;;
6185;SDS011;3126;52.738;8.316;2023-06-10T13:43:16;5.55;;;3.45;;
6185;SDS011;3126;52.738;8.316;2023-06-10T13:48:17;3.58;;;2.95;;
6185;SDS011;3126;52.738;8.316;2023-06-10T13:53:18;4.72;;;3.13;;
6185;SDS011;3126;52.738;8.316;2023-06-10T13:58:18;3.47;;;2.90;;
6185;SDS011;3126;52.738;8.316;2023-06-10T14:03:19;3.85;;;3.03;;
6185;SDS011;3126;52.738;8.316;2023-06-10T14:08:19;3.47;;;2.90;;
6185;SDS011;3126;52.738;8.316;2023-06-10T14:13:21;3.88;;;3.20;;
6185;SDS011;3126;52.738;8.316;2023-06-10T14:18:22;6.97;;;4.05;;
6185;SDS011;3126;52.738;8.316;2023-06-10T14:23:23;4.70;;;3.22;;
6185;SDS011;3126;52.738;8.316;2023-06-10T14:28:25;3.60;;;3.30;;
6185;SDS011;3126;52.738;8.316;2023-06-10T14:33:27;4.28;;;3.80;;
6185;SDS011;3126;52.738;8.316;2023-06-10T14:38:28;6.40;;;3.88;;
6185;SDS011;3126;52.738;8.316;2023-06-10T14:43:28;4.80;;;3.55;;
6185;SDS011;3126;52.738;8.316;2023-06-10T14:48:29;4.03;;;3.55;;
6185;SDS011;3126;52.738;8.316;2023-06-10T14:53:30;5.03;;;3.70;;
6185;SDS011;3126;52.738;8.316;2023-06-10T14:58:30;4.50;;;4.10;;
6185;SDS011;3126;52.738;8.316;2023-06-10T15:03:31;4.63;;;3.83;;
6185;SDS011;3126;52.738;8.316;2023-06-10T15:08:31;4.45;;;3.60;;
6185;SDS011;3126;52.738;8.316;2023-06-10T15:13:32;10.90;;;4.32;;
6185;SDS011;3126;52.738;8.316;2023-06-10T15:18:32;4.93;;;4.07;;
6185;SDS011;3126;52.738;8.316;2023-06-10T15:23:33;4.18;;;3.50;;
6185;SDS011;3126;52.738;8.316;2023-06-10T15:28:33;4.90;;;4.05;;
6185;SDS011;3126;52.738;8.316;2023-06-10T15:33:34;4.07;;;3.70;;
6185;SDS011;3126;52.738;8.316;2023-06-10T15:38:35;5.45;;;4.25;;
6185;SDS011;3126;52.738;8.316;2023-06-10T15:43:35;4.85;;;4.32;;
6185;SDS011;3126;52.738;8.316;2023-06-10T15:48:36;5.63;;;4.68;;
6185;SDS011;3126;52.738;8.316;2023-06-10T15:53:36;5.18;;;4.22;;
6185;SDS011;3126;52.738;8.316;2023-06-10T15:58:37;6.38;;;4.45;;
6185;SDS011;3126;52.738;8.316;2023-06-10T16:03:37;7.47;;;4.68;;
6185;SDS011;3126;52.738;8.316;2023-06-10T16:08:38;5.22;;;4.22;;
6185;SDS011;3126;52.738;8.316;2023-06-10T16:13:38;5.07;;;4.40;;
6185;SDS011;3126;52.738;8.316;2023-06-10T16:18:41;4.72;;;4.32;;
6185;SDS011;3126;52.738;8.316;2023-06-10T16:23:41;6.22;;;5.18;;
6185;SDS011;3126;52.738;8.316;2023-06-10T16:28:42;5.68;;;5.18;;
6185;SDS011;3126;52.738;8.316;2023-06-10T16:33:42;6.72;;;4.93;;
6185;SDS011;3126;52.738;8.316;2023-06-10T16:38:43;5.28;;;4.78;;
6185;SDS011;3126;52.738;8.316;2023-06-10T16:43:43;5.32;;;4.82;;
6185;SDS011;3126;52.738;8.316;2023-06-10T16:48:44;6.40;;;5.30;;
6185;SDS011;3126;52.738;8.316;2023-06-10T16:53:44;9.20;;;5.57;;
6185;SDS011;3126;52.738;8.316;2023-06-10T16:58:45;6.53;;;5.32;;
6185;SDS011;3126;52.738;8.316;2023-06-10T17:03:45;6.35;;;5.60;;
6185;SDS011;3126;52.738;8.316;2023-06-10T17:08:46;5.97;;;5.40;;
6185;SDS011;3126;52.738;8.316;2023-06-10T17:13:47;5.53;;;5.03;;
6185;SDS011;3126;52.738;8.316;2023-06-10T17:18:47;6.75;;;5.05;;
6185;SDS011;3126;52.738;8.316;2023-06-10T17:23:48;6.22;;;5.63;;
6185;SDS011;3126;52.738;8.316;2023-06-10T17:28:49;5.93;;;5.35;;
6185;SDS011;3126;52.738;8.316;2023-06-10T17:33:50;8.88;;;5.50;;
6185;SDS011;3126;52.738;8.316;2023-06-10T17:38:50;6.28;;;5.22;;
6185;SDS011;3126;52.738;8.316;2023-06-10T17:43:51;6.13;;;5.05;;
6185;SDS011;3126;52.738;8.316;2023-06-10T17:48:51;6.82;;;5.97;;
6185;SDS011;3126;52.738;8.316;2023-06-10T17:53:52;8.45;;;6.05;;
6185;SDS011;3126;52.738;8.316;2023-06-10T17:58:52;6.45;;;5.75;;
6185;SDS011;3126;52.738;8.316;2023-06-10T18:03:53;8.40;;;6.15;;
6185;SDS011;3126;52.738;8.316;2023-06-10T18:08:53;9.43;;;6.10;;
6185;SDS011;3126;52.738;8.316;2023-06-10T18:13:54;5.82;;;5.22;;
6185;SDS011;3126;52.738;8.316;2023-06-10T18:18:54;8.25;;;6.03;;
6185;SDS011;3126;52.738;8.316;2023-06-10T18:23:55;7.35;;;5.85;;
6185;SDS011;3126;52.738;8.316;2023-06-10T18:28:56;6.47;;;5.35;;
6185;SDS011;3126;52.738;8.316;2023-06-10T18:33:57;5.78;;;5.28;;
6185;SDS011;3126;52.738;8.316;2023-06-10T18:38:57;6.60;;;5.70;;
6185;SDS011;3126;52.738;8.316;2023-06-10T18:43:58;5.63;;;5.10;;
6185;SDS011;3126;52.738;8.316;2023-06-10T18:48:59;7.80;;;5.95;;
6185;SDS011;3126;52.738;8.316;2023-06-10T18:54:01;8.55;;;6.18;;
6185;SDS011;3126;52.738;8.316;2023-06-10T18:59:02;8.93;;;7.20;;
6185;SDS011;3126;52.738;8.316;2023-06-10T19:04:03;7.68;;;6.28;;
6185;SDS011;3126;52.738;8.316;2023-06-10T19:09:04;7.50;;;6.75;;
6185;SDS011;3126;52.738;8.316;2023-06-10T19:14:04;9.65;;;8.57;;
6185;SDS011;3126;52.738;8.316;2023-06-10T19:19:06;9.07;;;6.80;;
6185;SDS011;3126;52.738;8.316;2023-06-10T19:24:07;7.78;;;6.63;;
6185;SDS011;3126;52.738;8.316;2023-06-10T19:29:08;7.15;;;6.45;;
6185;SDS011;3126;52.738;8.316;2023-06-10T19:34:11;7.57;;;6.90;;
6185;SDS011;3126;52.738;8.316;2023-06-10T19:39:12;7.63;;;6.93;;
6185;SDS011;3126;52.738;8.316;2023-06-10T19:44:12;8.55;;;7.65;;
6185;SDS011;3126;52.738;8.316;2023-06-10T19:49:13;8.25;;;7.45;;
6185;SDS011;3126;52.738;8.316;2023-06-10T19:54:13;8.77;;;6.70;;
6185;SDS011;3126;52.738;8.316;2023-06-10T19:59:14;7.72;;;6.88;;
6185;SDS011;3126;52.738;8.316;2023-06-10T20:04:14;10.27;;;6.32;;
6185;SDS011;3126;52.738;8.316;2023-06-10T20:09:15;11.27;;;6.10;;
6185;SDS011;3126;52.738;8.316;2023-06-10T20:14:15;7.53;;;5.68;;
6185;SDS011;3126;52.738;8.316;2023-06-10T20:19:16;10.57;;;6.18;;
6185;SDS011;3126;52.738;8.316;2023-06-10T20:24:16;6.90;;;6.22;;
6185;SDS011;3126;52.738;8.316;2023-06-10T20:29:17;6.53;;;5.85;;
6185;SDS011;3126;52.738;8.316;2023-06-10T20:34:18;6.65;;;6.03;;
6185;SDS011;3126;52.738;8.316;2023-06-10T20:39:18;6.38;;;5.68;;
6185;SDS011;3126;52.738;8.316;2023-06-10T20:44:19;7.25;;;6.55;;
6185;SDS011;3126;52.738;8.316;2023-06-10T20:49:20;8.88;;;6.15;;
6185;SDS011;3126;52.738;8.316;2023-06-10T20:54:20;6.80;;;6.15;;
6185;SDS011;3126;52.738;8.316;2023-06-10T20:59:21;6.10;;;5.60;;
6185;SDS011;3126;52.738;8.316;2023-06-10T21:04:21;8.20;;;6.03;;
6185;SDS011;3126;52.738;8.316;2023-06-10T21:09:22;6.95;;;6.03;;
6185;SDS011;3126;52.738;8.316;2023-06-10T21:14:22;10.48;;;6.35;;
6185;SDS011;3126;52.738;8.316;2023-06-10T21:19:23;6.95;;;6.15;;
6185;SDS011;3126;52.738;8.316;2023-06-10T21:24:23;8.75;;;6.32;;
6185;SDS011;3126;52.738;8.316;2023-06-10T21:29:24;7.05;;;6.35;;
6185;SDS011;3126;52.738;8.316;2023-06-10T21:34:25;7.55;;;6.85;;
6185;SDS011;3126;52.738;8.316;2023-06-10T21:39:26;7.97;;;7.15;;
6185;SDS011;3126;52.738;8.316;2023-06-10T21:44:26;8.52;;;7.82;;
6185;SDS011;3126;52.738;8.316;2023-06-10T21:49:27;8.98;;;7.15;;
6185;SDS011;3126;52.738;8.316;2023-06-10T21:54:27;7.80;;;7.00;;
6185;SDS011;3126;52.738;8.316;2023-06-10T21:59:28;7.72;;;6.47;;
6185;SDS011;3126;52.738;8.316;2023-06-10T22:04:28;8.60;;;6.57;;
6185;SDS011;3126;52.738;8.316;2023-06-10T22:09:29;8.07;;;7.10;;
6185;SDS011;3126;52.738;8.316;2023-06-10T22:14:29;7.45;;;6.60;;
6185;SDS011;3126;52.738;8.316;2023-06-10T22:19:30;7.63;;;6.60;;
6185;SDS011;3126;52.738;8.316;2023-06-10T22:24:31;7.70;;;6.90;;
6185;SDS011;3126;52.738;8.316;2023-06-10T22:29:31;8.02;;;7.32;;
6185;SDS011;3126;52.738;8.316;2023-06-10T22:34:32;7.00;;;6.32;;
6185;SDS011;3126;52.738;8.316;2023-06-10T22:39:32;10.63;;;6.82;;
6185;SDS011;3126;52.738;8.316;2023-06-10T22:44:33;7.00;;;6.32;;
6185;SDS011;3126;52.738;8.316;2023-06-10T22:49:34;8.25;;;7.15;;
6185;SDS011;3126;52.738;8.316;2023-06-10T22:54:35;7.63;;;6.90;;
6185;SDS011;3126;52.738;8.316;2023-06-10T22:59:36;7.97;;;7.18;;
6185;SDS011;3126;52.738;8.316;2023-06-10T23:04:37;8.93;;;8.10;;
6185;SDS011;3126;52.738;8.316;2023-06-10T23:09:37;7.82;;;7.15;;
6185;SDS011;3126;52.738;8.316;2023-06-10T23:14:38;8.50;;;7.43;;
6185;SDS011;3126;52.738;8.316;2023-06-10T23:19:38;9.35;;;7.85;;
6185;SDS011;3126;52.738;8.316;2023-06-10T23:24:40;8.65;;;7.28;;
6185;SDS011;3126;52.738;8.316;2023-06-10T23:29:43;9.50;;;8.35;;
6185;SDS011;3126;52.738;8.316;2023-06-10T23:34:43;8.52;;;7.72;;
6185;SDS011;3126;52.738;8.316;2023-06-10T23:39:44;9.35;;;8.35;;
6185;SDS011;3126;52.738;8.316;2023-06-10T23:44:45;9.63;;;8.52;;
6185;SDS011;3126;52.738;8.316;2023-06-10T23:49:45;9.40;;;8.32;;
6185;SDS011;3126;52.738;8.316;2023-06-10T23:54:46;10.23;;;9.23;;
6185;SDS011;3126;52.738;8.316;2023-06-10T23:59:46;9.48;;;8.48;;
